sensor_id;sensor_type;location;lat;lon;timestamp;P1;durP1;ratioP1;P2;durP2;ratioP2
24216;SDS011;12356;49.386;8.688;2023-07-09T00:02:27;6.88;;;3.58;;
24216;SDS011;12356;49.386;8.688;2023-07-09T00:04:58;8.50;;;3.13;;
24216;SDS011;12356;49.386;8.688;2023-07-09T00:07:30;7.70;;;3.58;;
24216;SDS011;12356;49.386;8.688;2023-07-09T00:10:02;8.13;;;3.90;;
24216;SDS011;12356;49.386;8.688;2023-07-09T00:12:32;7.45;;;3.67;;
24216;SDS011;12356;49.386;8.688;2023-07-09T00:15:03;7.72;;;3.50;;
24216;SDS011;12356;49.386;8.688;2023-07-09T00:17:34;7.90;;;3.83;;
24216;SDS011;12356;49.386;8.688;2023-07-09T00:20:06;6.40;;;3.50;;
24216;SDS011;12356;49.386;8.688;2023-07-09T00:22:41;6.97;;;3.83;;
24216;SDS011;12356;49.386;8.688;2023-07-09T00:25:18;6.45;;;3.50;;
24216;SDS011;12356;49.386;8.688;2023-07-09T00:27:50;6.43;;;3.80;;
24216;SDS011;12356;49.386;8.688;2023-07-09T00:30:21;10.90;;;3.47;;
24216;SDS011;12356;49.386;8.688;2023-07-09T00:32:53;6.53;;;3.97;;
24216;SDS011;12356;49.386;8.688;2023-07-09T00:35:24;6.15;;;3.80;;
24216;SDS011;12356;49.386;8.688;2023-07-09T00:37:55;5.95;;;3.90;;
24216;SDS011;12356;49.386;8.688;2023-07-09T00:40:30;8.77;;;4.32;;
24216;SDS011;12356;49.386;8.688;2023-07-09T00:43:01;5.93;;;3.97;;
24216;SDS011;12356;49.386;8.688;2023-07-09T00:45:32;9.15;;;4.00;;
24216;SDS011;12356;49.386;8.688;2023-07-09T00:48:04;5.97;;;3.67;;
24216;SDS011;12356;49.386;8.688;2023-07-09T00:50:38;9.70;;;4.00;;
24216;SDS011;12356;49.386;8.688;2023-07-09T00:53:33;7.45;;;4.00;;
24216;SDS011;12356;49.386;8.688;2023-07-09T00:56:04;9.25;;;4.15;;
24216;SDS011;12356;49.386;8.688;2023-07-09T00:58:40;8.10;;;4.10;;
24216;SDS011;12356;49.386;8.688;2023-07-09T01:01:13;6.20;;;3.80;;
24216;SDS011;12356;49.386;8.688;2023-07-09T01:03:49;8.90;;;4.00;;
24216;SDS011;12356;49.386;8.688;2023-07-09T01:06:25;7.05;;;4.07;;
24216;SDS011;12356;49.386;8.688;2023-07-09T01:09:03;8.02;;;4.05;;
24216;SDS011;12356;49.386;8.688;2023-07-09T01:11:34;9.20;;;4.03;;
24216;SDS011;12356;49.386;8.688;2023-07-09T01:14:09;8.55;;;3.88;;
24216;SDS011;12356;49.386;8.688;2023-07-09T01:16:43;8.13;;;4.35;;
24216;SDS011;12356;49.386;8.688;2023-07-09T01:19:21;8.45;;;4.20;;
24216;SDS011;12356;49.386;8.688;2023-07-09T01:22:00;7.57;;;4.13;;
24216;SDS011;12356;49.386;8.688;2023-07-09T01:27:25;8.05;;;4.20;;
24216;SDS011;12356;49.386;8.688;2023-07-09T01:30:00;7.75;;;4.30;;
24216;SDS011;12356;49.386;8.688;2023-07-09T01:32:33;8.00;;;4.38;;
24216;SDS011;12356;49.386;8.688;2023-07-09T01:35:04;7.32;;;4.50;;
24216;SDS011;12356;49.386;8.688;2023-07-09T01:37:37;6.50;;;4.25;;
24216;SDS011;12356;49.386;8.688;2023-07-09T01:40:08;9.02;;;4.20;;
24216;SDS011;12356;49.386;8.688;2023-07-09T01:42:41;8.98;;;4.18;;
24216;SDS011;12356;49.386;8.688;2023-07-09T01:45:12;8.57;;;3.85;;
24216;SDS011;12356;49.386;8.688;2023-07-09T01:47:43;9.55;;;4.30;;
24216;SDS011;12356;49.386;8.688;2023-07-09T01:50:14;6.57;;;4.07;;
24216;SDS011;12356;49.386;8.688;2023-07-09T01:52:46;6.03;;;3.80;;
24216;SDS011;12356;49.386;8.688;2023-07-09T01:55:19;8.20;;;4.32;;
24216;SDS011;12356;49.386;8.688;2023-07-09T01:57:50;8.25;;;4.22;;
24216;SDS011;12356;49.386;8.688;2023-07-09T02:00:22;6.65;;;4.38;;
24216;SDS011;12356;49.386;8.688;2023-07-09T02:02:52;6.78;;;4.13;;
24216;SDS011;12356;49.386;8.688;2023-07-09T02:05:24;6.63;;;4.30;;
24216;SDS011;12356;49.386;8.688;2023-07-09T02:07:55;7.00;;;4.15;;
24216;SDS011;12356;49.386;8.688;2023-07-09T02:10:25;8.88;;;4.35;;
24216;SDS011;12356;49.386;8.688;2023-07-09T02:12:56;6.88;;;4.35;;
24216;SDS011;12356;49.386;8.688;2023-07-09T02:15:26;7.07;;;3.95;;
24216;SDS011;12356;49.386;8.688;2023-07-09T02:17:57;8.68;;;4.30;;
24216;SDS011;12356;49.386;8.688;2023-07-09T02:20:28;6.68;;;4.43;;
24216;SDS011;12356;49.386;8.688;2023-07-09T02:22:59;8.00;;;3.80;;
24216;SDS011;12356;49.386;8.688;2023-07-09T02:25:30;6.22;;;4.28;;
24216;SDS011;12356;49.386;8.688;2023-07-09T02:28:00;9.60;;;4.75;;
24216;SDS011;12356;49.386;8.688;2023-07-09T02:30:31;8.52;;;4.15;;
24216;SDS011;12356;49.386;8.688;2023-07-09T02:33:01;8.18;;;4.30;;
24216;SDS011;12356;49.386;8.688;2023-07-09T02:35:32;9.70;;;4.20;;
24216;SDS011;12356;49.386;8.688;2023-07-09T02:38:03;12.38;;;4.47;;
24216;SDS011;12356;49.386;8.688;2023-07-09T02:40:34;6.90;;;4.40;;
24216;SDS011;12356;49.386;8.688;2023-07-09T02:43:04;10.25;;;4.50;;
24216;SDS011;12356;49.386;8.688;2023-07-09T02:45:35;7.15;;;4.10;;
24216;SDS011;12356;49.386;8.688;2023-07-09T02:48:06;9.32;;;4.35;;
24216;SDS011;12356;49.386;8.688;2023-07-09T02:50:36;4.85;;;3.83;;
24216;SDS011;12356;49.386;8.688;2023-07-09T02:53:07;8.60;;;4.60;;
24216;SDS011;12356;49.386;8.688;2023-07-09T02:55:37;8.20;;;4.50;;
24216;SDS011;12356;49.386;8.688;2023-07-09T02:58:08;7.82;;;4.60;;
24216;SDS011;12356;49.386;8.688;2023-07-09T03:00:38;8.15;;;4.53;;
24216;SDS011;12356;49.386;8.688;2023-07-09T03:03:09;8.68;;;4.15;;
24216;SDS011;12356;49.386;8.688;2023-07-09T03:05:39;5.88;;;4.25;;
24216;SDS011;12356;49.386;8.688;2023-07-09T03:08:10;9.18;;;4.57;;
24216;SDS011;12356;49.386;8.688;2023-07-09T03:10:40;9.13;;;4.43;;
24216;SDS011;12356;49.386;8.688;2023-07-09T03:13:11;6.43;;;4.32;;
24216;SDS011;12356;49.386;8.688;2023-07-09T03:15:42;9.00;;;4.45;;
24216;SDS011;12356;49.386;8.688;2023-07-09T03:18:12;7.65;;;4.13;;
24216;SDS011;12356;49.386;8.688;2023-07-09T03:20:43;7.65;;;4.55;;
24216;SDS011;12356;49.386;8.688;2023-07-09T03:23:13;6.85;;;4.45;;
24216;SDS011;12356;49.386;8.688;2023-07-09T03:25:44;11.38;;;4.50;;
24216;SDS011;12356;49.386;8.688;2023-07-09T03:28:15;6.20;;;4.00;;
24216;SDS011;12356;49.386;8.688;2023-07-09T03:30:47;10.25;;;4.70;;
24216;SDS011;12356;49.386;8.688;2023-07-09T03:33:19;6.97;;;3.97;;
24216;SDS011;12356;49.386;8.688;2023-07-09T03:35:50;8.27;;;4.10;;
24216;SDS011;12356;49.386;8.688;2023-07-09T03:38:21;8.15;;;4.35;;
24216;SDS011;12356;49.386;8.688;2023-07-09T03:40:53;10.35;;;4.38;;
24216;SDS011;12356;49.386;8.688;2023-07-09T03:43:24;8.65;;;4.70;;
24216;SDS011;12356;49.386;8.688;2023-07-09T03:45:54;7.07;;;4.47;;
24216;SDS011;12356;49.386;8.688;2023-07-09T03:48:25;6.57;;;4.60;;
24216;SDS011;12356;49.386;8.688;2023-07-09T03:50:58;8.93;;;4.53;;
24216;SDS011;12356;49.386;8.688;2023-07-09T03:53:28;8.70;;;4.80;;
24216;SDS011;12356;49.386;8.688;2023-07-09T03:55:59;6.95;;;4.30;;
24216;SDS011;12356;49.386;8.688;2023-07-09T03:58:30;8.65;;;4.50;;
24216;SDS011;12356;49.386;8.688;2023-07-09T04:01:00;7.65;;;4.50;;
24216;SDS011;12356;49.386;8.688;2023-07-09T04:03:31;8.55;;;4.60;;
24216;SDS011;12356;49.386;8.688;2023-07-09T04:06:02;6.68;;;4.45;;
24216;SDS011;12356;49.386;8.688;2023-07-09T04:08:32;9.77;;;5.45;;
24216;SDS011;12356;49.386;8.688;2023-07-09T04:11:03;8.38;;;4.47;;
24216;SDS011;12356;49.386;8.688;2023-07-09T04:13:34;7.55;;;4.78;;
24216;SDS011;12356;49.386;8.688;2023-07-09T04:16:04;10.13;;;4.80;;
24216;SDS011;12356;49.386;8.688;2023-07-09T04:18:35;7.72;;;4.65;;
24216;SDS011;12356;49.386;8.688;2023-07-09T04:21:06;7.20;;;4.50;;
24216;SDS011;12356;49.386;8.688;2023-07-09T04:23:36;8.75;;;4.55;;
24216;SDS011;12356;49.386;8.688;2023-07-09T04:26:08;12.52;;;4.35;;
24216;SDS011;12356;49.386;8.688;2023-07-09T04:28:44;7.93;;;4.32;;
24216;SDS011;12356;49.386;8.688;2023-07-09T04:31:15;11.95;;;4.70;;
24216;SDS011;12356;49.386;8.688;2023-07-09T04:33:45;10.10;;;4.72;;
24216;SDS011;12356;49.386;8.688;2023-07-09T04:36:16;8.60;;;4.63;;
24216;SDS011;12356;49.386;8.688;2023-07-09T04:38:46;6.45;;;4.68;;
24216;SDS011;12356;49.386;8.688;2023-07-09T04:41:17;8.50;;;4.63;;
24216;SDS011;12356;49.386;8.688;2023-07-09T04:43:48;8.38;;;4.45;;
24216;SDS011;12356;49.386;8.688;2023-07-09T04:46:19;8.18;;;4.40;;
24216;SDS011;12356;49.386;8.688;2023-07-09T04:48:49;9.27;;;4.40;;
24216;SDS011;12356;49.386;8.688;2023-07-09T04:51:20;7.13;;;4.60;;
24216;SDS011;12356;49.386;8.688;2023-07-09T04:53:50;9.57;;;4.70;;
24216;SDS011;12356;49.386;8.688;2023-07-09T04:56:21;6.82;;;4.85;;
24216;SDS011;12356;49.386;8.688;2023-07-09T04:58:52;6.50;;;4.18;;
24216;SDS011;12356;49.386;8.688;2023-07-09T05:01:23;7.07;;;4.32;;
24216;SDS011;12356;49.386;8.688;2023-07-09T05:03:54;6.20;;;4.45;;
24216;SDS011;12356;49.386;8.688;2023-07-09T05:06:25;7.82;;;4.75;;
24216;SDS011;12356;49.386;8.688;2023-07-09T05:08:55;8.63;;;5.38;;
24216;SDS011;12356;49.386;8.688;2023-07-09T05:11:26;6.10;;;4.55;;
24216;SDS011;12356;49.386;8.688;2023-07-09T05:13:57;8.98;;;5.05;;
24216;SDS011;12356;49.386;8.688;2023-07-09T05:16:27;7.43;;;4.70;;
24216;SDS011;12356;49.386;8.688;2023-07-09T05:18:58;7.90;;;4.80;;
24216;SDS011;12356;49.386;8.688;2023-07-09T05:21:28;7.47;;;5.20;;
24216;SDS011;12356;49.386;8.688;2023-07-09T05:23:59;7.38;;;4.70;;
24216;SDS011;12356;49.386;8.688;2023-07-09T05:26:29;12.05;;;4.97;;
24216;SDS011;12356;49.386;8.688;2023-07-09T05:29:01;9.80;;;4.70;;
24216;SDS011;12356;49.386;8.688;2023-07-09T05:31:33;10.60;;;4.93;;
24216;SDS011;12356;49.386;8.688;2023-07-09T05:34:03;10.65;;;5.35;;
24216;SDS011;12356;49.386;8.688;2023-07-09T05:36:34;9.43;;;5.45;;
24216;SDS011;12356;49.386;8.688;2023-07-09T05:39:05;8.20;;;4.93;;
24216;SDS011;12356;49.386;8.688;2023-07-09T05:41:35;8.55;;;5.03;;
24216;SDS011;12356;49.386;8.688;2023-07-09T05:44:06;8.80;;;5.18;;
24216;SDS011;12356;49.386;8.688;2023-07-09T05:46:37;9.88;;;5.45;;
24216;SDS011;12356;49.386;8.688;2023-07-09T05:49:08;8.77;;;4.95;;
24216;SDS011;12356;49.386;8.688;2023-07-09T05:51:39;6.68;;;4.93;;
24216;SDS011;12356;49.386;8.688;2023-07-09T05:54:09;7.38;;;4.82;;
24216;SDS011;12356;49.386;8.688;2023-07-09T05:56:41;7.88;;;5.45;;
24216;SDS011;12356;49.386;8.688;2023-07-09T05:59:11;8.88;;;5.22;;
24216;SDS011;12356;49.386;8.688;2023-07-09T06:01:42;8.95;;;5.05;;
24216;SDS011;12356;49.386;8.688;2023-07-09T06:04:12;8.07;;;5.22;;
24216;SDS011;12356;49.386;8.688;2023-07-09T06:06:43;11.93;;;5.30;;
24216;SDS011;12356;49.386;8.688;2023-07-09T06:09:15;8.30;;;5.00;;
24216;SDS011;12356;49.386;8.688;2023-07-09T06:11:46;8.95;;;5.40;;
24216;SDS011;12356;49.386;8.688;2023-07-09T06:14:16;9.75;;;5.57;;
24216;SDS011;12356;49.386;8.688;2023-07-09T06:16:47;8.85;;;5.20;;
24216;SDS011;12356;49.386;8.688;2023-07-09T06:19:17;8.02;;;5.50;;
24216;SDS011;12356;49.386;8.688;2023-07-09T06:21:48;8.27;;;5.13;;
24216;SDS011;12356;49.386;8.688;2023-07-09T06:24:18;7.75;;;4.90;;
24216;SDS011;12356;49.386;8.688;2023-07-09T06:26:49;10.52;;;5.22;;
24216;SDS011;12356;49.386;8.688;2023-07-09T06:29:19;6.65;;;5.13;;
24216;SDS011;12356;49.386;8.688;2023-07-09T06:31:50;9.13;;;5.20;;
24216;SDS011;12356;49.386;8.688;2023-07-09T06:34:21;7.68;;;4.55;;
24216;SDS011;12356;49.386;8.688;2023-07-09T06:36:51;9.68;;;5.20;;
24216;SDS011;12356;49.386;8.688;2023-07-09T06:39:22;7.85;;;5.00;;
24216;SDS011;12356;49.386;8.688;2023-07-09T06:41:52;8.43;;;4.85;;
24216;SDS011;12356;49.386;8.688;2023-07-09T06:44:23;6.65;;;4.95;;
24216;SDS011;12356;49.386;8.688;2023-07-09T06:46:55;7.07;;;5.00;;
24216;SDS011;12356;49.386;8.688;2023-07-09T06:49:27;6.93;;;5.07;;
24216;SDS011;12356;49.386;8.688;2023-07-09T06:51:57;7.78;;;4.95;;
24216;SDS011;12356;49.386;8.688;2023-07-09T06:54:28;7.80;;;5.00;;
24216;SDS011;12356;49.386;8.688;2023-07-09T06:56:58;7.18;;;4.80;;
24216;SDS011;12356;49.386;8.688;2023-07-09T06:59:29;8.10;;;5.32;;
24216;SDS011;12356;49.386;8.688;2023-07-09T07:02:00;6.20;;;4.45;;
24216;SDS011;12356;49.386;8.688;2023-07-09T07:04:30;7.97;;;4.80;;
24216;SDS011;12356;49.386;8.688;2023-07-09T07:07:01;7.13;;;4.72;;
24216;SDS011;12356;49.386;8.688;2023-07-09T07:09:32;8.60;;;4.70;;
24216;SDS011;12356;49.386;8.688;2023-07-09T07:12:02;9.02;;;4.95;;
24216;SDS011;12356;49.386;8.688;2023-07-09T07:14:33;8.27;;;5.05;;
24216;SDS011;12356;49.386;8.688;2023-07-09T07:17:04;7.72;;;5.15;;
24216;SDS011;12356;49.386;8.688;2023-07-09T07:19:34;11.77;;;4.97;;
24216;SDS011;12356;49.386;8.688;2023-07-09T07:22:05;7.63;;;4.78;;
24216;SDS011;12356;49.386;8.688;2023-07-09T07:24:37;7.57;;;4.78;;
24216;SDS011;12356;49.386;8.688;2023-07-09T07:27:08;6.60;;;4.40;;
24216;SDS011;12356;49.386;8.688;2023-07-09T07:29:38;8.05;;;4.53;;
24216;SDS011;12356;49.386;8.688;2023-07-09T07:32:09;7.43;;;4.65;;
24216;SDS011;12356;49.386;8.688;2023-07-09T07:34:39;8.38;;;4.82;;
24216;SDS011;12356;49.386;8.688;2023-07-09T07:37:10;10.70;;;5.40;;
24216;SDS011;12356;49.386;8.688;2023-07-09T07:39:41;8.90;;;4.97;;
24216;SDS011;12356;49.386;8.688;2023-07-09T07:42:12;9.23;;;5.35;;
24216;SDS011;12356;49.386;8.688;2023-07-09T07:44:42;6.85;;;4.95;;
24216;SDS011;12356;49.386;8.688;2023-07-09T07:47:13;9.45;;;5.65;;
24216;SDS011;12356;49.386;8.688;2023-07-09T07:49:44;8.90;;;5.93;;
24216;SDS011;12356;49.386;8.688;2023-07-09T07:52:14;11.57;;;6.00;;
24216;SDS011;12356;49.386;8.688;2023-07-09T07:54:45;10.55;;;5.55;;
24216;SDS011;12356;49.386;8.688;2023-07-09T07:57:16;8.90;;;5.80;;
24216;SDS011;12356;49.386;8.688;2023-07-09T07:59:46;10.43;;;5.88;;
24216;SDS011;12356;49.386;8.688;2023-07-09T08:02:17;9.55;;;5.38;;
24216;SDS011;12356;49.386;8.688;2023-07-09T08:04:47;7.85;;;5.70;;
24216;SDS011;12356;49.386;8.688;2023-07-09T08:07:18;9.25;;;5.68;;
24216;SDS011;12356;49.386;8.688;2023-07-09T08:09:49;8.38;;;5.50;;
24216;SDS011;12356;49.386;8.688;2023-07-09T08:12:20;10.00;;;5.32;;
24216;SDS011;12356;49.386;8.688;2023-07-09T08:14:50;8.23;;;4.80;;
24216;SDS011;12356;49.386;8.688;2023-07-09T08:17:21;11.65;;;5.55;;
24216;SDS011;12356;49.386;8.688;2023-07-09T08:19:52;6.40;;;4.60;;
24216;SDS011;12356;49.386;8.688;2023-07-09T08:22:23;10.15;;;5.32;;
24216;SDS011;12356;49.386;8.688;2023-07-09T08:24:54;9.77;;;4.65;;
24216;SDS011;12356;49.386;8.688;2023-07-09T08:27:24;8.13;;;5.03;;
24216;SDS011;12356;49.386;8.688;2023-07-09T08:29:55;8.30;;;5.13;;
24216;SDS011;12356;49.386;8.688;2023-07-09T08:32:25;11.48;;;5.10;;
24216;SDS011;12356;49.386;8.688;2023-07-09T08:34:58;7.47;;;5.00;;
24216;SDS011;12356;49.386;8.688;2023-07-09T08:37:29;8.13;;;4.25;;
24216;SDS011;12356;49.386;8.688;2023-07-09T08:39:59;6.22;;;4.90;;
24216;SDS011;12356;49.386;8.688;2023-07-09T08:42:33;9.38;;;4.93;;
24216;SDS011;12356;49.386;8.688;2023-07-09T08:45:15;10.07;;;4.78;;
24216;SDS011;12356;49.386;8.688;2023-07-09T08:50:51;5.78;;;4.32;;
24216;SDS011;12356;49.386;8.688;2023-07-09T08:53:36;8.65;;;4.82;;
24216;SDS011;12356;49.386;8.688;2023-07-09T08:56:16;5.68;;;4.28;;
24216;SDS011;12356;49.386;8.688;2023-07-09T08:58:47;7.07;;;4.40;;
24216;SDS011;12356;49.386;8.688;2023-07-09T09:03:53;6.80;;;4.70;;
24216;SDS011;12356;49.386;8.688;2023-07-09T09:06:30;6.25;;;4.40;;
24216;SDS011;12356;49.386;8.688;2023-07-09T09:09:03;7.90;;;4.70;;
24216;SDS011;12356;49.386;8.688;2023-07-09T09:11:41;7.45;;;4.43;;
24216;SDS011;12356;49.386;8.688;2023-07-09T09:14:18;6.40;;;4.65;;
24216;SDS011;12356;49.386;8.688;2023-07-09T09:16:58;7.70;;;4.57;;
24216;SDS011;12356;49.386;8.688;2023-07-09T09:19:31;8.90;;;4.72;;
24216;SDS011;12356;49.386;8.688;2023-07-09T09:22:09;7.07;;;4.30;;
24216;SDS011;12356;49.386;8.688;2023-07-09T09:24:59;5.72;;;4.50;;
24216;SDS011;12356;49.386;8.688;2023-07-09T09:27:32;7.07;;;4.53;;
24216;SDS011;12356;49.386;8.688;2023-07-09T09:30:03;10.20;;;4.78;;
24216;SDS011;12356;49.386;8.688;2023-07-09T09:32:49;7.25;;;4.78;;
24216;SDS011;12356;49.386;8.688;2023-07-09T09:35:28;6.65;;;4.47;;
24216;SDS011;12356;49.386;8.688;2023-07-09T09:38:01;6.70;;;4.13;;
24216;SDS011;12356;49.386;8.688;2023-07-09T09:40:33;8.18;;;4.60;;
24216;SDS011;12356;49.386;8.688;2023-07-09T09:43:11;6.35;;;4.05;;
24216;SDS011;12356;49.386;8.688;2023-07-09T09:45:47;6.32;;;4.00;;
24216;SDS011;12356;49.386;8.688;2023-07-09T09:48:20;6.85;;;4.25;;
24216;SDS011;12356;49.386;8.688;2023-07-09T09:50:59;6.50;;;4.00;;
24216;SDS011;12356;49.386;8.688;2023-07-09T09:53:37;4.90;;;3.60;;
24216;SDS011;12356;49.386;8.688;2023-07-09T09:56:14;6.10;;;4.20;;
24216;SDS011;12356;49.386;8.688;2023-07-09T09:58:57;7.22;;;3.70;;
24216;SDS011;12356;49.386;8.688;2023-07-09T10:01:29;4.47;;;3.80;;
24216;SDS011;12356;49.386;8.688;2023-07-09T10:04:02;5.40;;;3.60;;
24216;SDS011;12356;49.386;8.688;2023-07-09T10:06:38;7.07;;;3.88;;
24216;SDS011;12356;49.386;8.688;2023-07-09T10:09:16;7.00;;;4.13;;
24216;SDS011;12356;49.386;8.688;2023-07-09T10:12:13;6.22;;;3.90;;
24216;SDS011;12356;49.386;8.688;2023-07-09T10:17:39;5.85;;;3.90;;
24216;SDS011;12356;49.386;8.688;2023-07-09T10:20:33;6.22;;;3.60;;
24216;SDS011;12356;49.386;8.688;2023-07-09T10:26:13;7.05;;;3.58;;
24216;SDS011;12356;49.386;8.688;2023-07-09T10:31:54;6.65;;;3.22;;
24216;SDS011;12356;49.386;8.688;2023-07-09T10:34:43;5.82;;;3.60;;
24216;SDS011;12356;49.386;8.688;2023-07-09T10:40:13;5.95;;;3.50;;
24216;SDS011;12356;49.386;8.688;2023-07-09T10:42:48;7.72;;;3.40;;
24216;SDS011;12356;49.386;8.688;2023-07-09T10:45:36;6.70;;;3.55;;
24216;SDS011;12356;49.386;8.688;2023-07-09T10:48:20;5.68;;;3.60;;
24216;SDS011;12356;49.386;8.688;2023-07-09T10:51:22;7.60;;;3.67;;
24216;SDS011;12356;49.386;8.688;2023-07-09T10:56:55;5.28;;;3.08;;
24216;SDS011;12356;49.386;8.688;2023-07-09T10:59:32;6.28;;;3.58;;
24216;SDS011;12356;49.386;8.688;2023-07-09T11:02:57;4.82;;;3.10;;
24216;SDS011;12356;49.386;8.688;2023-07-09T11:05:04;5.32;;;3.33;;
24216;SDS011;12356;49.386;8.688;2023-07-09T11:07:45;6.10;;;3.90;;
24216;SDS011;12356;49.386;8.688;2023-07-09T11:10:32;5.88;;;3.50;;
24216;SDS011;12356;49.386;8.688;2023-07-09T11:13:12;6.75;;;3.72;;
24216;SDS011;12356;49.386;8.688;2023-07-09T11:15:48;3.92;;;3.30;;
24216;SDS011;12356;49.386;8.688;2023-07-09T11:18:24;4.03;;;3.28;;
24216;SDS011;12356;49.386;8.688;2023-07-09T11:23:53;6.57;;;3.90;;
24216;SDS011;12356;49.386;8.688;2023-07-09T11:26:34;7.10;;;4.03;;
24216;SDS011;12356;49.386;8.688;2023-07-09T11:31:38;7.40;;;4.22;;
24216;SDS011;12356;49.386;8.688;2023-07-09T11:34:15;6.97;;;4.10;;
24216;SDS011;12356;49.386;8.688;2023-07-09T11:36:49;7.35;;;4.40;;
24216;SDS011;12356;49.386;8.688;2023-07-09T11:39:30;11.10;;;5.30;;
24216;SDS011;12356;49.386;8.688;2023-07-09T11:42:30;9.60;;;5.55;;
24216;SDS011;12356;49.386;8.688;2023-07-09T11:45:10;9.55;;;6.28;;
24216;SDS011;12356;49.386;8.688;2023-07-09T11:47:47;6.60;;;4.18;;
24216;SDS011;12356;49.386;8.688;2023-07-09T11:50:24;10.18;;;4.80;;
24216;SDS011;12356;49.386;8.688;2023-07-09T11:53:04;6.85;;;4.50;;
24216;SDS011;12356;49.386;8.688;2023-07-09T11:55:47;10.88;;;5.78;;
24216;SDS011;12356;49.386;8.688;2023-07-09T11:58:18;9.65;;;5.60;;
24216;SDS011;12356;49.386;8.688;2023-07-09T12:00:50;6.60;;;4.00;;
24216;SDS011;12356;49.386;8.688;2023-07-09T12:03:25;4.95;;;3.88;;
24216;SDS011;12356;49.386;8.688;2023-07-09T12:06:05;6.30;;;3.85;;
24216;SDS011;12356;49.386;8.688;2023-07-09T12:08:46;5.55;;;3.55;;
24216;SDS011;12356;49.386;8.688;2023-07-09T12:11:19;6.10;;;3.47;;
24216;SDS011;12356;49.386;8.688;2023-07-09T12:14:00;5.35;;;3.17;;
24216;SDS011;12356;49.386;8.688;2023-07-09T12:16:38;6.93;;;3.42;;
24216;SDS011;12356;49.386;8.688;2023-07-09T12:19:11;7.75;;;3.50;;
24216;SDS011;12356;49.386;8.688;2023-07-09T12:21:44;7.65;;;3.40;;
24216;SDS011;12356;49.386;8.688;2023-07-09T12:24:19;6.55;;;3.75;;
24216;SDS011;12356;49.386;8.688;2023-07-09T12:26:53;5.47;;;3.13;;
24216;SDS011;12356;49.386;8.688;2023-07-09T12:31:59;7.30;;;3.30;;
24216;SDS011;12356;49.386;8.688;2023-07-09T12:34:33;5.88;;;3.00;;
24216;SDS011;12356;49.386;8.688;2023-07-09T12:37:03;4.85;;;3.38;;
24216;SDS011;12356;49.386;8.688;2023-07-09T12:39:34;3.67;;;2.60;;
24216;SDS011;12356;49.386;8.688;2023-07-09T12:42:14;5.43;;;3.10;;
24216;SDS011;12356;49.386;8.688;2023-07-09T12:44:50;5.85;;;3.28;;
24216;SDS011;12356;49.386;8.688;2023-07-09T12:47:23;5.47;;;3.10;;
24216;SDS011;12356;49.386;8.688;2023-07-09T12:50:01;6.03;;;3.10;;
24216;SDS011;12356;49.386;8.688;2023-07-09T12:52:47;7.07;;;3.50;;
24216;SDS011;12356;49.386;8.688;2023-07-09T12:55:19;5.38;;;3.00;;
24216;SDS011;12356;49.386;8.688;2023-07-09T12:58:01;6.78;;;2.95;;
24216;SDS011;12356;49.386;8.688;2023-07-09T13:00:32;6.45;;;3.20;;
24216;SDS011;12356;49.386;8.688;2023-07-09T13:03:03;6.00;;;3.22;;
24216;SDS011;12356;49.386;8.688;2023-07-09T13:05:53;4.75;;;3.08;;
24216;SDS011;12356;49.386;8.688;2023-07-09T13:08:27;5.03;;;3.20;;
24216;SDS011;12356;49.386;8.688;2023-07-09T13:11:00;7.03;;;3.50;;
24216;SDS011;12356;49.386;8.688;2023-07-09T13:13:31;5.00;;;3.30;;
24216;SDS011;12356;49.386;8.688;2023-07-09T13:16:01;5.47;;;3.85;;
24216;SDS011;12356;49.386;8.688;2023-07-09T13:18:32;4.20;;;3.30;;
24216;SDS011;12356;49.386;8.688;2023-07-09T13:21:03;4.32;;;3.08;;
24216;SDS011;12356;49.386;8.688;2023-07-09T13:23:45;7.40;;;3.20;;
24216;SDS011;12356;49.386;8.688;2023-07-09T13:26:16;6.47;;;3.00;;
24216;SDS011;12356;49.386;8.688;2023-07-09T13:28:47;6.15;;;3.15;;
24216;SDS011;12356;49.386;8.688;2023-07-09T13:31:19;4.72;;;2.90;;
24216;SDS011;12356;49.386;8.688;2023-07-09T13:33:52;6.18;;;3.17;;
24216;SDS011;12356;49.386;8.688;2023-07-09T13:36:25;5.43;;;3.00;;
24216;SDS011;12356;49.386;8.688;2023-07-09T13:38:55;6.20;;;3.60;;
24216;SDS011;12356;49.386;8.688;2023-07-09T13:41:26;6.18;;;3.30;;
24216;SDS011;12356;49.386;8.688;2023-07-09T13:43:56;6.30;;;3.40;;
24216;SDS011;12356;49.386;8.688;2023-07-09T13:46:28;7.18;;;3.60;;
24216;SDS011;12356;49.386;8.688;2023-07-09T13:48:59;8.65;;;3.28;;
24216;SDS011;12356;49.386;8.688;2023-07-09T13:51:33;5.50;;;3.33;;
24216;SDS011;12356;49.386;8.688;2023-07-09T13:54:06;5.20;;;2.88;;
24216;SDS011;12356;49.386;8.688;2023-07-09T13:56:51;5.00;;;3.08;;
24216;SDS011;12356;49.386;8.688;2023-07-09T13:59:23;5.97;;;3.30;;
24216;SDS011;12356;49.386;8.688;2023-07-09T14:01:55;4.93;;;2.95;;
24216;SDS011;12356;49.386;8.688;2023-07-09T14:04:27;6.40;;;3.47;;
24216;SDS011;12356;49.386;8.688;2023-07-09T14:06:58;6.72;;;3.55;;
24216;SDS011;12356;49.386;8.688;2023-07-09T14:09:29;6.55;;;3.50;;
24216;SDS011;12356;49.386;8.688;2023-07-09T14:12:00;7.18;;;3.45;;
24216;SDS011;12356;49.386;8.688;2023-07-09T14:14:31;7.05;;;3.10;;
24216;SDS011;12356;49.386;8.688;2023-07-09T14:17:02;8.98;;;3.58;;
24216;SDS011;12356;49.386;8.688;2023-07-09T14:19:33;7.22;;;3.17;;
24216;SDS011;12356;49.386;8.688;2023-07-09T14:22:15;6.28;;;3.33;;
24216;SDS011;12356;49.386;8.688;2023-07-09T14:25:20;8.02;;;3.30;;
24216;SDS011;12356;49.386;8.688;2023-07-09T14:27:55;5.63;;;3.28;;
24216;SDS011;12356;49.386;8.688;2023-07-09T14:30:25;6.97;;;3.30;;
24216;SDS011;12356;49.386;8.688;2023-07-09T14:32:56;6.38;;;3.38;;
24216;SDS011;12356;49.386;8.688;2023-07-09T14:35:28;8.00;;;3.72;;
24216;SDS011;12356;49.386;8.688;2023-07-09T14:37:59;7.20;;;3.40;;
24216;SDS011;12356;49.386;8.688;2023-07-09T14:40:30;6.25;;;3.50;;
24216;SDS011;12356;49.386;8.688;2023-07-09T14:43:01;9.52;;;3.50;;
24216;SDS011;12356;49.386;8.688;2023-07-09T14:45:33;9.10;;;3.80;;
24216;SDS011;12356;49.386;8.688;2023-07-09T14:48:11;6.43;;;3.22;;
24216;SDS011;12356;49.386;8.688;2023-07-09T14:50:43;6.03;;;3.50;;
24216;SDS011;12356;49.386;8.688;2023-07-09T14:53:17;6.50;;;3.38;;
24216;SDS011;12356;49.386;8.688;2023-07-09T14:55:53;5.50;;;3.42;;
24216;SDS011;12356;49.386;8.688;2023-07-09T14:58:24;4.90;;;3.47;;
24216;SDS011;12356;49.386;8.688;2023-07-09T15:00:55;10.65;;;5.78;;
24216;SDS011;12356;49.386;8.688;2023-07-09T15:03:26;5.32;;;3.53;;
24216;SDS011;12356;49.386;8.688;2023-07-09T15:05:56;6.47;;;3.97;;
24216;SDS011;12356;49.386;8.688;2023-07-09T15:08:27;7.05;;;4.03;;
24216;SDS011;12356;49.386;8.688;2023-07-09T15:10:58;7.75;;;4.13;;
24216;SDS011;12356;49.386;8.688;2023-07-09T15:13:29;8.75;;;3.80;;
24216;SDS011;12356;49.386;8.688;2023-07-09T15:16:03;5.97;;;3.55;;
24216;SDS011;12356;49.386;8.688;2023-07-09T15:18:34;9.18;;;3.72;;
24216;SDS011;12356;49.386;8.688;2023-07-09T15:21:06;9.93;;;3.80;;
24216;SDS011;12356;49.386;8.688;2023-07-09T15:23:39;9.30;;;3.60;;
24216;SDS011;12356;49.386;8.688;2023-07-09T15:26:14;5.32;;;3.63;;
24216;SDS011;12356;49.386;8.688;2023-07-09T15:28:46;6.72;;;3.60;;
24216;SDS011;12356;49.386;8.688;2023-07-09T15:31:20;6.32;;;3.22;;
24216;SDS011;12356;49.386;8.688;2023-07-09T15:33:50;6.03;;;3.47;;
24216;SDS011;12356;49.386;8.688;2023-07-09T15:36:21;4.72;;;3.40;;
24216;SDS011;12356;49.386;8.688;2023-07-09T15:38:51;6.50;;;3.85;;
24216;SDS011;12356;49.386;8.688;2023-07-09T15:41:22;5.97;;;3.30;;
24216;SDS011;12356;49.386;8.688;2023-07-09T15:43:52;5.70;;;3.38;;
24216;SDS011;12356;49.386;8.688;2023-07-09T15:46:23;7.30;;;3.47;;
24216;SDS011;12356;49.386;8.688;2023-07-09T15:48:54;8.10;;;3.42;;
24216;SDS011;12356;49.386;8.688;2023-07-09T15:51:25;8.38;;;3.28;;
24216;SDS011;12356;49.386;8.688;2023-07-09T15:53:56;5.43;;;3.42;;